Time;durP1;ratioP1;P1;durP2;ratioP2;P2;SDS_P1;SDS_P2;PMS_P1;PMS_P2;Temp;Humidity;BMP_temperature;BMP_pressure;BME280_temperature;BME280_humidity;BME280_pressure;Samples;Min_cycle;Max_cycle;Signal;HPM_P1;HPM_P2
2023/03/11 00:00:22;;;;;;;4.30;2.60;;;19.30;50.20;;;;;;4987883;28;20216;-70
2023/03/11 00:02:52;;;;;;;4.80;2.90;;;19.30;50.20;;;;;;4984158;28;20267;-70
2023/03/11 00:05:25;;;;;;;6.05;3.15;;;19.30;50.90;;;;;;4975371;28;20228;-70
2023/03/11 00:07:52;;;;;;;5.25;2.90;;;19.30;50.30;;;;;;4991920;28;20188;-70
2023/03/11 00:10:23;;;;;;;7.40;3.38;;;19.30;50.20;;;;;;4983456;28;20192;-69
2023/03/11 00:12:49;;;;;;;4.13;2.45;;;19.30;50.20;;;;;;4984407;28;20630;-70
2023/03/11 00:15:15;;;;;;;6.43;2.85;;;19.30;50.20;;;;;;4982532;28;20235;-70
2023/03/11 00:17:41;;;;;;;4.60;2.83;;;19.30;50.20;;;;;;4984030;28;20197;-70
2023/03/11 00:20:15;;;;;;;4.63;2.80;;;19.30;50.30;;;;;;4981305;28;20216;-70
2023/03/11 00:22:41;;;;;;;5.60;2.83;;;19.30;50.30;;;;;;4978646;28;20212;-70
2023/03/11 00:25:10;;;;;;;6.72;2.95;;;19.30;50.20;;;;;;4998690;28;20236;-70
2023/03/11 00:27:36;;;;;;;4.25;2.67;;;19.30;50.20;;;;;;5001004;28;20200;-70
2023/03/11 00:30:03;;;;;;;4.13;2.42;;;19.30;50.20;;;;;;4995015;28;20196;-70
2023/03/11 00:32:28;;;;;;;4.95;2.60;;;19.30;50.20;;;;;;4986225;28;20188;-70
2023/03/11 00:34:54;;;;;;;4.65;2.72;;;19.30;50.10;;;;;;4991697;28;20216;-69
2023/03/11 00:37:20;;;;;;;3.78;2.50;;;19.30;50.10;;;;;;4975499;28;20189;-70
2023/03/11 00:39:46;;;;;;;4.85;2.75;;;19.30;50.20;;;;;;4975280;28;20209;-70
2023/03/11 00:42:12;;;;;;;4.38;2.47;;;19.30;50.10;;;;;;5005805;28;20188;-70
2023/03/11 00:44:38;;;;;;;4.65;2.47;;;19.30;50.10;;;;;;4994429;28;20200;-70
2023/03/11 00:47:04;;;;;;;3.72;1.85;;;19.20;50.00;;;;;;5002373;28;20187;-70
2023/03/11 00:49:30;;;;;;;4.43;2.42;;;19.30;50.80;;;;;;5001767;28;20189;-70
2023/03/11 00:51:56;;;;;;;3.83;2.47;;;19.20;50.00;;;;;;4991109;28;20193;-70
2023/03/11 00:54:21;;;;;;;4.70;2.38;;;19.30;50.10;;;;;;4982905;28;20193;-70
2023/03/11 00:56:47;;;;;;;4.50;2.55;;;19.30;50.00;;;;;;4990690;28;20195;-70
2023/03/11 00:59:14;;;;;;;2.90;2.10;;;19.20;50.00;;;;;;4974938;28;20216;-70
2023/03/11 01:01:40;;;;;;;4.22;2.33;;;19.20;49.90;;;;;;4993212;28;20254;-70
2023/03/11 01:04:06;;;;;;;3.50;2.13;;;19.20;50.00;;;;;;4986438;28;20189;-70
2023/03/11 01:06:32;;;;;;;4.25;2.17;;;19.30;50.00;;;;;;4994266;28;20204;-70
2023/03/11 01:08:57;;;;;;;2.35;1.77;;;19.30;50.00;;;;;;4978708;28;20193;-70
2023/03/11 01:11:23;;;;;;;2.80;1.88;;;19.20;50.00;;;;;;4978162;28;20195;-70
2023/03/11 01:13:49;;;;;;;3.45;1.90;;;19.20;49.90;;;;;;4989974;28;20184;-70
2023/03/11 01:16:15;;;;;;;3.95;2.05;;;19.30;50.20;;;;;;5007514;28;20251;-70
2023/03/11 01:18:41;;;;;;;3.80;2.15;;;19.20;55.30;;;;;;4988593;28;20193;-70
2023/03/11 01:21:07;;;;;;;3.92;2.08;;;18.80;62.60;;;;;;5001077;28;20275;-70
2023/03/11 01:23:33;;;;;;;3.63;2.15;;;20.30;50.90;;;;;;5004310;28;20235;-70
2023/03/11 01:25:59;;;;;;;2.90;2.08;;;19.20;50.00;;;;;;5053691;22;20219;-70
2023/03/11 01:28:25;;;;;;;2.50;1.65;;;19.20;50.00;;;;;;5032177;28;20205;-70
2023/03/11 01:30:51;;;;;;;3.67;2.38;;;19.20;49.90;;;;;;5050093;28;20289;-70
2023/03/11 01:33:19;;;;;;;2.70;1.65;;;19.30;50.00;;;;;;5017078;28;20179;-71
2023/03/11 01:35:45;;;;;;;3.10;1.80;;;19.30;50.00;;;;;;5033013;28;20203;-69
2023/03/11 01:38:12;;;;;;;2.80;1.98;;;19.20;49.90;;;;;;5033663;28;20183;-69
2023/03/11 01:40:46;;;;;;;2.55;1.65;;;19.30;50.60;;;;;;5017068;28;20211;-67
2023/03/11 01:43:44;;;;;;;2.95;1.88;;;19.30;50.10;;;;;;5016999;28;20185;-68
2023/03/11 01:46:24;;;;;;;4.65;2.22;;;19.30;50.10;;;;;;5044577;28;20553;-70
2023/03/11 01:48:57;;;;;;;3.15;2.03;;;19.30;50.10;;;;;;5016767;28;20183;-69
2023/03/11 01:51:49;;;;;;;4.18;1.70;;;19.20;50.10;;;;;;5017236;28;20179;-70
2023/03/11 01:54:22;;;;;;;3.05;2.22;;;19.30;50.10;;;;;;5028167;28;20229;-70
2023/03/11 01:56:50;;;;;;;2.90;1.67;;;19.20;50.10;;;;;;5016402;28;20241;-70
2023/03/11 01:59:24;;;;;;;3.53;2.00;;;19.30;50.60;;;;;;5033089;28;20257;-68
2023/03/11 02:02:21;;;;;;;3.63;2.08;;;19.30;50.10;;;;;;5016812;28;20183;-68
2023/03/11 02:04:49;;;;;;;2.42;1.92;;;19.30;50.30;;;;;;5013559;28;20187;-67
2023/03/11 02:07:16;;;;;;;3.25;1.58;;;19.30;52.20;;;;;;5011306;28;20233;-68
2023/03/11 02:09:43;;;;;;;2.30;1.40;;;19.30;50.10;;;;;;5016261;28;20664;-69
2023/03/11 02:12:13;;;;;;;3.00;1.92;;;19.30;50.00;;;;;;5015984;28;20189;-69
2023/03/11 02:14:46;;;;;;;2.92;1.80;;;19.20;49.90;;;;;;5032720;28;20190;-68
2023/03/11 02:17:12;;;;;;;2.75;1.83;;;19.20;50.00;;;;;;5032641;28;20195;-72
2023/03/11 02:20:11;;;;;;;3.00;1.60;;;19.30;50.10;;;;;;5032854;28;20250;-69
2023/03/11 02:22:41;;;;;;;2.42;1.52;;;19.20;50.00;;;;;;5031781;28;20191;-69
2023/03/11 02:25:33;;;;;;;2.75;1.70;;;19.30;50.00;;;;;;5015283;28;20225;-69
2023/03/11 02:28:03;;;;;;;2.40;1.70;;;19.20;50.50;;;;;;5015104;28;20195;-69
2023/03/11 02:30:32;;;;;;;5.05;1.63;;;19.20;49.90;;;;;;5015265;28;20218;-69
2023/03/11 02:32:59;;;;;;;2.42;1.60;;;19.20;49.80;;;;;;5010638;28;20203;-69
2023/03/11 02:35:26;;;;;;;2.97;1.70;;;19.20;49.90;;;;;;5015210;28;20207;-69
2023/03/11 02:37:53;;;;;;;2.60;1.85;;;19.20;49.90;;;;;;5015262;28;20214;-69
2023/03/11 02:40:23;;;;;;;3.38;1.98;;;19.20;49.90;;;;;;5031518;28;20207;-69
2023/03/11 02:42:58;;;;;;;3.25;1.70;;;19.20;49.90;;;;;;5015831;28;20337;-69
2023/03/11 02:45:26;;;;;;;2.63;1.50;;;19.20;49.80;;;;;;5015101;28;20195;-69
2023/03/11 02:47:56;;;;;;;2.92;1.55;;;19.20;49.80;;;;;;5014925;28;20188;-69
2023/03/11 02:50:27;;;;;;;3.15;1.50;;;19.20;49.80;;;;;;5015310;28;20183;-69
2023/03/11 02:52:54;;;;;;;1.73;1.33;;;19.20;49.80;;;;;;5015004;28;20183;-70
2023/03/11 02:55:22;;;;;;;2.42;1.48;;;19.20;49.80;;;;;;5015139;28;20210;-69
2023/03/11 02:57:48;;;;;;;2.40;1.60;;;19.20;49.80;;;;;;5014579;28;20202;-69
2023/03/11 03:00:16;;;;;;;1.83;1.42;;;19.20;49.80;;;;;;5014275;28;20210;-69
2023/03/11 03:02:52;;;;;;;2.35;1.40;;;19.20;49.80;;;;;;5015217;28;20194;-68
2023/03/11 03:05:21;;;;;;;1.45;1.15;;;19.20;49.80;;;;;;5031191;28;20726;-69
2023/03/11 03:07:49;;;;;;;2.28;1.55;;;19.20;49.80;;;;;;5014609;28;20179;-68
2023/03/11 03:10:19;;;;;;;2.28;1.30;;;19.20;49.80;;;;;;5014981;28;20191;-69
2023/03/11 03:12:45;;;;;;;2.08;1.27;;;19.30;50.00;;;;;;5014619;28;20191;-69
2023/03/11 03:15:14;;;;;;;2.22;1.40;;;19.20;49.80;;;;;;5014395;28;20218;-69
2023/03/11 03:17:40;;;;;;;2.15;1.20;;;19.20;49.80;;;;;;5014246;28;20187;-69
2023/03/11 03:20:10;;;;;;;2.92;1.42;;;19.20;49.80;;;;;;5014288;28;20207;-68
2023/03/11 03:22:40;;;;;;;1.58;1.20;;;19.20;49.80;;;;;;5014621;28;20191;-70
2023/03/11 03:25:07;;;;;;;1.73;1.33;;;19.30;49.90;;;;;;5013880;28;20274;-69
2023/03/11 03:27:34;;;;;;;1.75;1.17;;;19.30;49.90;;;;;;5013833;28;20188;-69
2023/03/11 03:30:00;;;;;;;2.72;1.45;;;19.30;49.90;;;;;;5014073;28;20186;-69
2023/03/11 03:32:27;;;;;;;1.92;1.33;;;19.20;49.90;;;;;;5012183;28;20184;-68
2023/03/11 03:34:57;;;;;;;1.92;1.27;;;19.20;49.80;;;;;;5030758;28;20191;-69
2023/03/11 03:37:28;;;;;;;1.80;1.10;;;19.20;49.80;;;;;;5014521;28;20202;-69
2023/03/11 03:39:54;;;;;;;1.75;1.45;;;19.20;49.80;;;;;;5014032;28;20215;-69
2023/03/11 03:42:20;;;;;;;1.33;1.10;;;19.20;49.80;;;;;;5014279;28;20186;-69
2023/03/11 03:44:46;;;;;;;1.75;1.20;;;19.20;49.80;;;;;;5013573;28;20278;-69
2023/03/11 03:47:12;;;;;;;1.65;1.30;;;19.20;49.80;;;;;;5014024;28;20329;-69
2023/03/11 03:49:38;;;;;;;1.42;1.10;;;19.20;49.70;;;;;;5013953;28;20198;-69
2023/03/11 03:52:06;;;;;;;1.80;1.10;;;19.20;49.70;;;;;;5029936;28;20191;-69
2023/03/11 03:54:33;;;;;;;1.48;1.17;;;19.20;49.70;;;;;;5014107;28;20191;-69
2023/03/11 03:57:02;;;;;;;1.45;1.00;;;19.20;49.70;;;;;;5014121;28;20344;-69
2023/03/11 03:59:30;;;;;;;1.27;1.02;;;19.30;49.70;;;;;;5014277;28;20211;-69
2023/03/11 04:01:58;;;;;;;1.73;1.23;;;19.20;49.70;;;;;;5014372;28;20261;-69
2023/03/11 04:04:26;;;;;;;1.35;1.00;;;19.20;49.70;;;;;;5014247;28;20214;-69
2023/03/11 04:06:52;;;;;;;2.20;1.10;;;19.30;49.80;;;;;;5013665;28;20238;-69
2023/03/11 04:09:19;;;;;;;1.38;1.10;;;19.30;49.70;;;;;;5013908;28;20193;-69
2023/03/11 04:11:45;;;;;;;2.13;1.23;;;19.20;49.70;;;;;;5030235;28;20194;-68
2023/03/11 04:14:13;;;;;;;2.55;1.27;;;19.20;49.70;;;;;;5014078;28;20183;-69
2023/03/11 04:16:45;;;;;;;1.95;1.10;;;19.30;49.80;;;;;;5014495;28;20221;-69
2023/03/11 04:19:13;;;;;;;1.88;1.52;;;19.20;49.70;;;;;;5014080;28;20207;-69
2023/03/11 04:21:39;;;;;;;1.65;1.00;;;19.20;49.70;;;;;;5013653;28;20647;-69
2023/03/11 04:24:06;;;;;;;1.75;1.05;;;19.20;49.60;;;;;;5013569;28;20183;-69
2023/03/11 04:26:35;;;;;;;2.33;1.10;;;19.20;49.70;;;;;;5013902;28;20294;-69
2023/03/11 04:29:02;;;;;;;1.75;0.90;;;19.20;49.70;;;;;;5013447;28;20452;-69
2023/03/11 04:31:31;;;;;;;1.30;1.00;;;19.30;50.40;;;;;;5014372;28;20278;-69
2023/03/11 04:33:59;;;;;;;2.00;1.10;;;19.30;49.80;;;;;;5016386;28;20200;-69
2023/03/11 04:36:25;;;;;;;1.38;0.90;;;19.30;49.80;;;;;;5017339;28;20207;-68
2023/03/11 04:38:51;;;;;;;1.63;1.10;;;19.20;49.70;;;;;;5017600;28;20222;-69
2023/03/11 04:41:17;;;;;;;1.30;1.10;;;19.30;49.80;;;;;;5017624;28;20180;-69
2023/03/11 04:43:44;;;;;;;1.77;1.30;;;19.20;49.70;;;;;;5017375;28;20253;-69
2023/03/11 04:46:10;;;;;;;1.05;0.95;;;19.20;49.60;;;;;;5017264;28;20207;-68
2023/03/11 04:48:37;;;;;;;1.75;1.42;;;19.20;49.70;;;;;;5017320;28;20191;-69
2023/03/11 04:51:04;;;;;;;1.88;1.05;;;19.20;50.20;;;;;;5033963;28;20179;-69
2023/03/11 04:53:30;;;;;;;2.05;1.02;;;19.20;49.60;;;;;;5025527;28;20191;-68
2023/03/11 04:55:56;;;;;;;1.67;1.10;;;19.20;49.60;;;;;;5033708;28;20261;-69
2023/03/11 04:58:22;;;;;;;2.10;1.33;;;19.20;49.60;;;;;;5033534;28;20274;-68
2023/03/11 05:00:48;;;;;;;2.17;0.80;;;19.20;49.60;;;;;;5016873;28;20215;-68
2023/03/11 05:03:15;;;;;;;1.65;1.23;;;19.20;49.50;;;;;;5013618;28;20267;-67
2023/03/11 05:05:41;;;;;;;1.42;1.05;;;19.20;49.50;;;;;;5033520;28;20306;-69
2023/03/11 05:08:07;;;;;;;1.15;0.90;;;19.20;49.50;;;;;;5016997;28;20219;-68
2023/03/11 05:10:34;;;;;;;0.77;0.73;;;19.20;49.50;;;;;;5016951;28;20655;-69
2023/03/11 05:13:03;;;;;;;1.45;0.98;;;19.20;49.50;;;;;;5016640;28;20270;-68
2023/03/11 05:15:33;;;;;;;1.58;0.80;;;19.20;49.40;;;;;;5013323;28;20207;-68
2023/03/11 05:18:02;;;;;;;3.22;1.17;;;19.20;49.40;;;;;;5033017;28;20191;-68
2023/03/11 05:20:28;;;;;;;1.42;1.02;;;19.20;49.40;;;;;;5016843;28;20275;-68
2023/03/11 05:22:54;;;;;;;1.23;1.00;;;19.20;49.40;;;;;;5016765;28;20334;-68
2023/03/11 05:25:20;;;;;;;2.45;0.88;;;19.20;49.40;;;;;;5033042;28;20280;-68
2023/03/11 05:27:46;;;;;;;1.45;0.95;;;19.20;49.40;;;;;;5015888;28;20202;-69
2023/03/11 05:30:14;;;;;;;0.90;0.75;;;19.20;49.40;;;;;;5016706;28;20187;-69
2023/03/11 05:32:41;;;;;;;0.98;0.77;;;19.20;49.30;;;;;;5016232;28;20191;-68
2023/03/11 05:35:07;;;;;;;2.33;0.90;;;19.20;49.30;;;;;;5032166;28;20207;-68
2023/03/11 05:37:34;;;;;;;1.58;1.08;;;19.20;49.30;;;;;;5015564;28;20721;-69
2023/03/11 05:40:05;;;;;;;1.00;0.90;;;19.20;49.30;;;;;;5015402;28;20218;-69
2023/03/11 05:42:33;;;;;;;1.55;1.10;;;19.20;49.30;;;;;;5015244;28;20183;-68
2023/03/11 05:45:00;;;;;;;1.10;0.75;;;19.20;49.20;;;;;;5016206;28;20207;-69
2023/03/11 05:47:27;;;;;;;1.02;0.80;;;19.20;49.30;;;;;;5015362;28;20190;-69
2023/03/11 05:49:54;;;;;;;1.23;0.85;;;19.20;49.20;;;;;;5032781;28;20282;-68
2023/03/11 05:52:21;;;;;;;1.15;0.75;;;19.20;49.20;;;;;;5016286;28;20288;-68
2023/03/11 05:54:50;;;;;;;1.23;0.82;;;19.20;49.30;;;;;;5015922;28;20192;-68
2023/03/11 05:57:20;;;;;;;1.55;1.08;;;19.20;49.30;;;;;;5015753;28;20212;-68
2023/03/11 05:59:46;;;;;;;1.23;0.70;;;19.20;49.30;;;;;;5015915;28;20298;-68
2023/03/11 06:02:13;;;;;;;0.82;0.80;;;19.20;49.20;;;;;;5016131;28;20249;-68
2023/03/11 06:04:40;;;;;;;0.90;0.80;;;19.20;49.20;;;;;;5015711;28;20655;-69
2023/03/11 06:07:08;;;;;;;0.85;0.70;;;19.20;49.30;;;;;;5015703;28;20202;-68
2023/03/11 06:09:37;;;;;;;0.85;0.75;;;19.20;49.20;;;;;;5016442;28;20651;-69
2023/03/11 06:12:06;;;;;;;1.02;0.80;;;19.20;49.20;;;;;;5016020;28;20183;-68
2023/03/11 06:14:46;;;;;;;1.85;0.80;;;19.20;49.30;;;;;;5017500;28;20194;-68
2023/03/11 06:17:12;;;;;;;0.90;0.70;;;19.20;49.50;;;;;;5015412;28;20648;-68
2023/03/11 06:19:37;;;;;;;1.05;0.90;;;19.20;52.60;;;;;;5031825;28;20211;-68
2023/03/11 06:22:04;;;;;;;1.50;0.68;;;19.20;52.40;;;;;;5015591;28;20193;-68
2023/03/11 06:24:29;;;;;;;0.80;0.52;;;19.20;55.60;;;;;;5015512;28;20179;-68
2023/03/11 06:26:55;;;;;;;0.80;0.80;;;19.20;56.20;;;;;;5013444;28;20295;-68
2023/03/11 06:29:25;;;;;;;1.83;0.52;;;19.10;54.90;;;;;;5015533;28;20191;-68
2023/03/11 06:31:52;;;;;;;1.40;0.80;;;19.20;54.30;;;;;;5031575;28;20558;-68
2023/03/11 06:34:18;;;;;;;1.30;0.77;;;19.20;55.40;;;;;;5031668;28;20205;-68
2023/03/11 06:36:45;;;;;;;1.02;0.70;;;19.20;54.90;;;;;;5014968;28;20269;-68
2023/03/11 06:39:14;;;;;;;0.90;0.80;;;19.20;54.50;;;;;;5015226;28;20203;-68
2023/03/11 06:41:41;;;;;;;0.93;0.77;;;19.20;54.20;;;;;;5015307;28;20206;-68
2023/03/11 06:44:10;;;;;;;1.40;0.90;;;19.20;54.10;;;;;;5015338;28;20184;-66
2023/03/11 06:46:37;;;;;;;1.92;0.80;;;19.20;57.50;;;;;;5031940;28;20238;-67
2023/03/11 06:49:04;;;;;;;1.15;0.70;;;19.20;55.00;;;;;;5032304;28;20194;-68
2023/03/11 06:51:30;;;;;;;1.50;0.90;;;19.20;57.50;;;;;;5048818;28;20186;-68
2023/03/11 06:53:56;;;;;;;0.98;0.70;;;19.20;51.70;;;;;;5031732;28;20266;-67
2023/03/11 06:56:24;;;;;;;1.05;0.63;;;19.30;54.00;;;;;;5015259;28;20195;-67
2023/03/11 06:59:01;;;;;;;0.98;0.90;;;19.30;52.00;;;;;;5015817;28;20301;-67
2023/03/11 07:01:30;;;;;;;1.13;0.90;;;19.40;52.90;;;;;;5031743;28;20179;-67
2023/03/11 07:03:57;;;;;;;1.55;0.77;;;19.40;52.10;;;;;;5015301;28;20184;-67
2023/03/11 07:06:27;;;;;;;1.83;0.85;;;19.40;53.90;;;;;;5031312;28;20226;-68
2023/03/11 07:09:00;;;;;;;1.10;0.80;;;19.40;58.90;;;;;;5015959;28;20297;-67
2023/03/11 07:11:27;;;;;;;2.45;0.93;;;19.40;54.00;;;;;;5031710;28;20179;-68
2023/03/11 07:14:01;;;;;;;1.17;0.88;;;19.40;58.00;;;;;;5015817;28;20175;-68
2023/03/11 07:16:30;;;;;;;1.90;0.90;;;19.40;56.30;;;;;;5031130;28;20199;-70
2023/03/11 07:19:03;;;;;;;1.38;0.80;;;19.40;50.30;;;;;;5014517;28;20255;-69
2023/03/11 07:21:31;;;;;;;0.93;0.68;;;19.40;50.10;;;;;;5031350;28;20183;-69
2023/03/11 07:24:00;;;;;;;0.70;0.70;;;19.40;50.60;;;;;;5030997;28;20565;-70
2023/03/11 07:26:27;;;;;;;1.90;0.93;;;19.30;49.10;;;;;;5043639;23;20279;-70
2023/03/11 07:28:55;;;;;;;1.02;0.88;;;19.30;49.00;;;;;;5031617;28;20642;-71
2023/03/11 07:31:24;;;;;;;1.10;0.88;;;19.40;48.90;;;;;;5060873;28;20708;-71
2023/03/11 07:33:51;;;;;;;0.75;0.60;;;19.40;48.90;;;;;;5047744;28;20189;-71
2023/03/11 07:36:23;;;;;;;1.60;1.00;;;19.40;48.90;;;;;;5064270;28;20231;-71
2023/03/11 07:38:57;;;;;;;2.40;0.82;;;19.50;49.00;;;;;;5029422;28;20274;-71
2023/03/11 07:41:23;;;;;;;1.85;0.85;;;19.40;48.90;;;;;;5019557;28;20172;-71
2023/03/11 07:43:48;;;;;;;1.35;1.00;;;19.40;48.90;;;;;;5020085;28;20187;-71
2023/03/11 07:46:17;;;;;;;1.05;0.80;;;19.40;48.90;;;;;;5024293;28;20207;-70
2023/03/11 07:48:44;;;;;;;1.50;0.88;;;19.40;48.90;;;;;;5030828;28;20194;-70
2023/03/11 07:51:15;;;;;;;1.90;0.90;;;19.40;48.90;;;;;;5039830;28;20210;-70
2023/03/11 07:53:41;;;;;;;1.58;0.75;;;19.30;48.80;;;;;;5047801;28;20669;-70
2023/03/11 07:56:10;;;;;;;2.20;0.90;;;19.40;48.90;;;;;;5011700;28;20249;-70
2023/03/11 07:58:37;;;;;;;2.15;1.08;;;19.40;48.90;;;;;;5017419;28;20187;-71
2023/03/11 08:01:09;;;;;;;2.35;1.00;;;19.30;48.80;;;;;;5029726;28;20211;-71
2023/03/11 08:03:36;;;;;;;1.10;0.98;;;19.40;48.90;;;;;;5024528;28;20180;-71
2023/03/11 08:06:10;;;;;;;1.85;0.90;;;19.40;48.90;;;;;;5046311;28;20207;-71
2023/03/11 08:08:35;;;;;;;0.80;0.80;;;19.40;48.90;;;;;;5030558;28;20190;-70
2023/03/11 08:11:03;;;;;;;1.63;0.90;;;19.40;48.90;;;;;;5041415;28;20555;-71
2023/03/11 08:13:28;;;;;;;1.08;0.80;;;19.40;48.90;;;;;;5035302;28;20190;-71
2023/03/11 08:15:54;;;;;;;0.90;0.80;;;19.40;48.80;;;;;;5043499;28;20219;-71
2023/03/11 08:18:20;;;;;;;0.90;0.73;;;19.40;48.90;;;;;;5043424;28;20187;-71
2023/03/11 08:20:46;;;;;;;1.23;1.00;;;19.40;48.80;;;;;;5019406;28;20211;-71
2023/03/11 08:23:12;;;;;;;1.85;0.80;;;19.40;48.80;;;;;;5034687;28;20197;-71
2023/03/11 08:25:39;;;;;;;0.60;0.60;;;19.40;48.80;;;;;;5034693;28;20245;-71
2023/03/11 08:28:06;;;;;;;0.60;0.60;;;19.40;48.80;;;;;;5032577;28;20245;-71
2023/03/11 08:30:33;;;;;;;1.45;0.90;;;19.40;48.80;;;;;;5028998;28;20654;-71
2023/03/11 08:32:59;;;;;;;0.88;0.70;;;19.40;48.80;;;;;;5025512;28;20183;-71
2023/03/11 08:35:25;;;;;;;1.40;0.60;;;19.40;48.90;;;;;;4998714;28;20180;-71
2023/03/11 08:37:52;;;;;;;1.95;1.08;;;19.40;48.90;;;;;;5031251;28;20208;-71
2023/03/11 08:40:18;;;;;;;1.20;0.80;;;19.50;48.90;;;;;;5035012;28;20207;-71
2023/03/11 08:42:43;;;;;;;1.58;0.95;;;19.50;48.90;;;;;;5031293;28;20188;-71
2023/03/11 08:45:10;;;;;;;1.63;0.80;;;19.40;48.80;;;;;;5033619;28;20186;-71
2023/03/11 08:47:37;;;;;;;1.95;0.90;;;19.50;49.00;;;;;;5034231;28;20199;-70
2023/03/11 08:50:16;;;;;;;0.73;0.70;;;19.40;48.90;;;;;;5018349;28;20192;-71
2023/03/11 08:52:43;;;;;;;1.55;0.80;;;19.50;48.90;;;;;;5031219;28;20538;-71
2023/03/11 08:55:15;;;;;;;1.05;0.95;;;19.50;49.00;;;;;;5047051;28;20184;-71
2023/03/11 08:57:41;;;;;;;1.15;0.60;;;19.40;48.80;;;;;;5031400;28;20210;-70
2023/03/11 09:00:09;;;;;;;1.10;1.00;;;19.40;48.80;;;;;;5014446;28;20203;-71
2023/03/11 09:02:35;;;;;;;0.60;0.55;;;19.50;48.80;;;;;;5044947;28;20183;-71
2023/03/11 09:05:00;;;;;;;1.63;1.00;;;19.50;48.70;;;;;;5026344;28;20179;-71
2023/03/11 09:07:26;;;;;;;1.45;0.90;;;19.50;49.30;;;;;;5034450;28;20206;-71
2023/03/11 09:09:53;;;;;;;0.93;0.82;;;19.50;48.70;;;;;;5018343;28;20242;-71
2023/03/11 09:12:19;;;;;;;1.20;0.70;;;19.50;48.70;;;;;;5017756;28;20278;-70
2023/03/11 09:14:45;;;;;;;0.55;0.55;;;19.50;48.70;;;;;;5034131;28;20193;-71
2023/03/11 09:17:11;;;;;;;1.67;0.60;;;19.50;48.70;;;;;;5006968;28;20222;-70
2023/03/11 09:19:37;;;;;;;1.35;0.88;;;19.50;48.70;;;;;;5012012;28;20207;-71
2023/03/11 09:22:04;;;;;;;1.02;0.80;;;19.50;48.70;;;;;;5048566;28;20183;-71
2023/03/11 09:24:33;;;;;;;0.85;0.70;;;19.60;49.40;;;;;;5035585;28;20262;-71
2023/03/11 09:27:00;;;;;;;1.25;0.80;;;19.60;48.60;;;;;;5033920;28;20218;-71
2023/03/11 09:29:26;;;;;;;1.05;0.85;;;19.60;48.50;;;;;;5029518;28;20192;-70
2023/03/11 09:31:52;;;;;;;1.08;0.65;;;19.60;48.60;;;;;;5027084;28;20195;-71
2023/03/11 09:34:18;;;;;;;1.45;0.73;;;19.60;48.50;;;;;;5034752;28;20191;-71
2023/03/11 09:36:44;;;;;;;1.45;0.70;;;19.60;48.50;;;;;;5041871;28;20215;-71
2023/03/11 09:39:10;;;;;;;2.33;0.80;;;19.60;48.60;;;;;;5041943;28;20214;-70
2023/03/11 09:42:03;;;;;;;1.17;0.70;;;19.60;48.50;;;;;;5026669;28;20182;-71
2023/03/11 09:44:36;;;;;;;1.15;0.80;;;19.60;48.60;;;;;;5042419;28;20198;-71
2023/03/11 09:47:22;;;;;;;0.82;0.68;;;19.60;48.70;;;;;;5008662;28;20212;-71
2023/03/11 09:50:36;;;;;;;0.70;0.70;;;19.60;48.70;;;;;;5038470;28;20277;-71
2023/03/11 09:53:32;;;;;;;1.70;0.75;;;19.60;48.60;;;;;;5030733;28;20164;-71
2023/03/11 09:56:02;;;;;;;0.95;0.70;;;19.50;48.50;;;;;;5031828;28;20199;-71
2023/03/11 09:58:54;;;;;;;0.80;0.68;;;19.50;48.50;;;;;;5034397;28;20184;-69
2023/03/11 10:01:33;;;;;;;0.80;0.60;;;19.60;48.60;;;;;;5030442;28;20191;-72
2023/03/11 10:04:29;;;;;;;0.70;0.70;;;19.60;48.60;;;;;;5034568;28;20237;-71
2023/03/11 10:06:56;;;;;;;0.70;0.70;;;19.50;48.50;;;;;;5029739;28;20208;-71
2023/03/11 10:09:42;;;;;;;1.55;0.82;;;19.60;48.60;;;;;;5008799;28;20186;-71
2023/03/11 10:12:23;;;;;;;0.93;0.80;;;19.60;48.50;;;;;;5049840;28;20194;-70
2023/03/11 10:15:26;;;;;;;1.67;0.80;;;19.60;48.40;;;;;;5030010;28;20188;-71
2023/03/11 10:18:11;;;;;;;1.23;0.85;;;19.60;48.50;;;;;;5028671;28;20215;-71
2023/03/11 10:21:25;;;;;;;1.42;0.80;;;19.60;48.40;;;;;;5023184;28;20695;-71
2023/03/11 10:24:34;;;;;;;0.68;0.60;;;19.60;48.30;;;;;;5005031;28;20807;-70
2023/03/11 10:27:10;;;;;;;0.50;0.50;;;19.60;48.30;;;;;;5029193;28;20621;-71
2023/03/11 10:30:01;;;;;;;0.70;0.70;;;19.70;48.40;;;;;;5026446;28;20183;-71
2023/03/11 10:32:55;;;;;;;0.70;0.60;;;19.60;48.30;;;;;;5025076;28;20179;-72
2023/03/11 10:35:51;;;;;;;0.77;0.77;;;19.60;48.20;;;;;;5049103;28;20183;-71
2023/03/11 10:38:38;;;;;;;0.75;0.47;;;19.60;48.20;;;;;;5021666;28;20195;-71
2023/03/11 10:41:16;;;;;;;0.82;0.80;;;19.60;48.30;;;;;;5031146;28;20211;-71
2023/03/11 10:43:59;;;;;;;0.60;0.60;;;19.60;48.30;;;;;;5038411;28;20183;-71
2023/03/11 10:46:27;;;;;;;0.90;0.70;;;19.60;48.30;;;;;;5037348;28;20249;-71
2023/03/11 10:48:53;;;;;;;0.95;0.85;;;19.70;48.40;;;;;;5041599;28;20230;-71
2023/03/11 10:51:23;;;;;;;0.88;0.88;;;19.60;48.30;;;;;;5031967;28;20187;-71
2023/03/11 10:53:56;;;;;;;1.17;0.93;;;19.70;48.40;;;;;;5040375;28;20187;-71
2023/03/11 10:56:35;;;;;;;1.38;1.00;;;19.60;48.30;;;;;;5040326;28;20235;-71
2023/03/11 10:59:04;;;;;;;2.83;1.00;;;19.60;48.30;;;;;;5032044;28;20209;-71
2023/03/11 11:01:31;;;;;;;1.70;0.90;;;19.60;48.30;;;;;;5013380;28;20216;-70
2023/03/11 11:04:00;;;;;;;1.80;1.05;;;19.60;48.30;;;;;;5028504;28;20195;-71
2023/03/11 11:06:35;;;;;;;0.77;0.65;;;19.60;48.30;;;;;;5010893;28;20298;-71
2023/03/11 11:09:14;;;;;;;0.75;0.73;;;19.60;48.30;;;;;;5031353;28;20842;-71
2023/03/11 11:11:42;;;;;;;1.20;0.93;;;19.60;48.10;;;;;;5038511;28;20726;-72
2023/03/11 11:14:09;;;;;;;1.13;0.80;;;19.60;48.20;;;;;;5026448;28;20270;-71
2023/03/11 11:16:35;;;;;;;1.05;0.98;;;19.70;48.30;;;;;;5031175;28;20268;-71
2023/03/11 11:19:10;;;;;;;1.38;1.00;;;19.60;48.20;;;;;;5018567;28;20246;-71
2023/03/11 11:21:44;;;;;;;1.02;0.70;;;19.60;48.20;;;;;;5041860;28;20271;-70
2023/03/11 11:24:25;;;;;;;1.88;1.02;;;19.70;48.20;;;;;;5037358;28;20187;-71
2023/03/11 11:27:16;;;;;;;1.20;1.10;;;19.60;48.20;;;;;;5026122;28;20257;-70
2023/03/11 11:29:42;;;;;;;1.08;0.80;;;19.70;48.30;;;;;;5032491;28;20191;-71
2023/03/11 11:32:17;;;;;;;0.70;0.70;;;19.70;48.30;;;;;;5031159;28;20266;-71
2023/03/11 11:34:58;;;;;;;0.80;0.80;;;19.70;48.30;;;;;;5042133;28;20208;-70
2023/03/11 11:37:30;;;;;;;1.67;0.80;;;19.60;48.20;;;;;;5014360;28;20195;-71
2023/03/11 11:40:09;;;;;;;0.70;0.70;;;19.60;48.20;;;;;;5035963;28;20218;-70
2023/03/11 11:42:38;;;;;;;0.75;0.68;;;19.70;48.20;;;;;;5029248;28;20180;-71
2023/03/11 11:45:25;;;;;;;2.33;1.00;;;19.60;48.10;;;;;;5040361;28;20171;-71
2023/03/11 11:48:02;;;;;;;1.10;0.80;;;19.60;48.00;;;;;;5026420;28;20211;-71
2023/03/11 11:50:40;;;;;;;0.90;0.60;;;19.60;48.10;;;;;;5012995;28;20175;-70
2023/03/11 11:53:42;;;;;;;0.70;0.70;;;19.70;48.20;;;;;;5030954;28;20199;-70
2023/03/11 11:56:08;;;;;;;0.80;0.80;;;19.70;48.20;;;;;;5026343;28;20210;-70
2023/03/11 11:58:34;;;;;;;0.80;0.70;;;19.60;48.00;;;;;;5009515;28;20187;-71
2023/03/11 12:01:34;;;;;;;0.90;0.90;;;19.70;48.20;;;;;;5039981;28;20287;-71
2023/03/11 12:04:31;;;;;;;0.82;0.82;;;19.60;47.90;;;;;;5047365;28;20270;-71
2023/03/11 12:07:28;;;;;;;1.05;0.90;;;19.70;48.10;;;;;;5022024;28;20207;-68
2023/03/11 12:10:22;;;;;;;0.70;0.70;;;19.70;48.10;;;;;;5026795;28;20212;-70
2023/03/11 12:12:54;;;;;;;0.98;0.80;;;19.70;48.10;;;;;;5022083;28;20192;-70
2023/03/11 12:15:45;;;;;;;0.70;0.70;;;19.70;49.20;;;;;;5029330;28;20280;-69
2023/03/11 12:18:35;;;;;;;0.70;0.70;;;19.70;48.10;;;;;;5022892;28;20253;-70
2023/03/11 12:21:26;;;;;;;0.98;0.80;;;19.70;51.30;;;;;;5038207;28;20214;-70
2023/03/11 12:24:24;;;;;;;0.70;0.70;;;19.70;49.60;;;;;;5030226;28;20190;-70
2023/03/11 12:26:53;;;;;;;1.00;0.77;;;19.70;50.90;;;;;;5028439;28;20245;-69
2023/03/11 12:29:34;;;;;;;0.80;0.80;;;19.70;48.00;;;;;;5037074;28;20215;-69
2023/03/11 12:32:01;;;;;;;1.23;0.65;;;19.70;48.00;;;;;;5035760;28;20176;-71
2023/03/11 12:34:30;;;;;;;1.65;0.60;;;19.70;48.00;;;;;;5027613;28;20638;-70
2023/03/11 12:37:02;;;;;;;0.70;0.60;;;19.70;48.00;;;;;;5036191;28;20302;-71
2023/03/11 12:39:34;;;;;;;1.48;0.90;;;19.70;48.00;;;;;;5039200;28;20196;-71
2023/03/11 12:42:09;;;;;;;1.05;0.80;;;19.70;48.00;;;;;;5047122;28;20249;-70
2023/03/11 12:44:37;;;;;;;1.35;0.90;;;19.70;47.90;;;;;;5030318;28;20206;-70
2023/03/11 12:47:12;;;;;;;0.65;0.65;;;19.70;48.00;;;;;;5024905;28;20214;-70
2023/03/11 12:49:45;;;;;;;1.08;0.80;;;19.60;47.80;;;;;;5030219;28;20655;-71
2023/03/11 12:52:10;;;;;;;0.63;0.63;;;19.70;48.00;;;;;;5042493;28;20183;-70
2023/03/11 12:54:43;;;;;;;1.60;0.90;;;19.70;48.00;;;;;;5009212;28;20176;-70
2023/03/11 12:57:15;;;;;;;0.85;0.70;;;19.70;48.00;;;;;;5028529;28;20261;-70
2023/03/11 13:00:21;;;;;;;1.50;1.00;;;19.70;48.00;;;;;;5017137;28;20207;-70
2023/03/11 13:03:11;;;;;;;0.80;0.70;;;19.60;47.80;;;;;;5031689;28;20230;-70
2023/03/11 13:06:08;;;;;;;0.80;0.70;;;19.70;47.90;;;;;;5032906;28;20175;-71
2023/03/11 13:08:47;;;;;;;0.60;0.60;;;19.70;47.90;;;;;;5032680;28;20172;-70